^^
Datos históricos de la estación: Murcia-Puente Tocinos
Diario Informe para Mayo 13, 2022 Unidades:  Ingés    Métrico   Ambas
Diario Semanal Mensual Anual
  Máxima: Mínima: Promedio:
Temperatura: 82.9 °F 61.2 °F 70.9 °F
Punto de rocio: 61.3 °F 55.6 °F 57.7 °F
Humedad: 85% 42.8% 65%
Velocidad viento: 10.7mph 0mph 4.7mph
Racha viento: 19mph - -
Viento- - SE
Presión: 30.1 in 30.1 in -
Precipitación: 0 in    
 
 
Tabla de datos para Mayo 13, 2022
Hora Temperatura Punto de rocio Presión Viento Velocidad viento Racha viento Humedad Intensidad lluvia(por hora) Nubes
00:04 66 °F 58.5 °F 30.1 in ONO 2 mph 3.5 mph 77% 0 in
00:09 65.8 °F 58.5 °F 30.1 in NO 2 mph 4.6 mph 77% 0 in
00:14 65.8 °F 58.5 °F 30.1 in NO 2 mph 3.6 mph 77% 0 in
00:19 65.8 °F 58.6 °F 30.1 in NNO 2 mph 2.9 mph 77.7% 0 in
00:24 65.8 °F 58.6 °F 30.1 in NNO 1.8 mph 2.9 mph 78% 0 in
00:29 65.7 °F 58.6 °F 30.1 in NNO 1.8 mph 2.9 mph 78% 0 in
00:34 65.7 °F 58.6 °F 30.1 in North 1.4 mph 4.3 mph 78% 0 in
00:39 65.7 °F 58.8 °F 30.1 in NE 1.4 mph 4.6 mph 78.3% 0 in
00:44 65.7 °F 59 °F 30.1 in NNE 2.3 mph 4.6 mph 79% 0 in
00:49 65.5 °F 58.8 °F 30.1 in NNE 2.4 mph 4.7 mph 79% 0 in
00:59 65.3 °F 59 °F 30.1 in NE 2.9 mph 4.7 mph 80% 0 in
01:04 65.1 °F 58.8 °F 30.1 in NE 2.9 mph 4.7 mph 80% 0 in
01:09 65.1 °F 59 °F 30.1 in NE 2.9 mph 5.2 mph 80.9% 0 in
01:14 64.9 °F 59 °F 30.1 in NNE 2.9 mph 4.6 mph 81% 0 in
01:19 64.8 °F 58.8 °F 30.1 in NNE 2.9 mph 3.6 mph 81.2% 0 in
01:24 64.6 °F 59 °F 30.1 in NE 2.5 mph 3.5 mph 82% 0 in
01:29 64.8 °F 59.2 °F 30.1 in NE 2.4 mph 2.4 mph 82.1% 0 in
01:34 64.8 °F 59.2 °F 30.1 in NE 1.5 mph 2.9 mph 82.4% 0 in
01:39 64.8 °F 59.2 °F 30.1 in NE 1.4 mph 2.9 mph 82% 0 in
01:44 64.8 °F 59.2 °F 30.1 in NE 1.4 mph 3.6 mph 82.3% 0 in
01:49 64.8 °F 59.5 °F 30.1 in NE 1.4 mph 4.6 mph 83% 0 in
01:54 64.8 °F 59.5 °F 30.1 in NE 2.3 mph 4.6 mph 83% 0 in
01:59 64.6 °F 59.4 °F 30.1 in NE 2.4 mph 3.5 mph 83% 0 in
02:04 64.6 °F 59.5 °F 30.1 in NE 1.8 mph 2.3 mph 83.9% 0 in
02:09 64.6 °F 59.5 °F 30.1 in NE 1.8 mph 2.3 mph 84% 0 in
02:14 64.4 °F 59.4 °F 30.1 in NE 0.2 mph 3.6 mph 83.7% 0 in
02:19 64.2 °F 59 °F 30.1 in Calm   2.3 mph 83.4% 0 in
02:24 64.2 °F 59.4 °F 30.1 in SE 1.2 mph 3.5 mph 84% 0 in
02:29 64 °F 59.2 °F 30.1 in SE 1.4 mph 2 mph 84% 0 in
02:34 64 °F 59.2 °F 30.1 in SE 0.2 mph 2.4 mph 84% 0 in
02:39 63.9 °F 59.4 °F 30.1 in Calm   2.9 mph 84.9% 0 in
02:44 63.9 °F 59.4 °F 30.1 in NNO 1.2 mph 3.6 mph 85% 0 in
02:49 63.7 °F 59.2 °F 30.1 in NNO 1.4 mph 2.4 mph 85% 0 in
02:54 63.7 °F 59.2 °F 30.1 in ONO 1.4 mph 3.6 mph 85% 0 in
02:59 63.7 °F 59.2 °F 30.1 in SO 1.4 mph 4.3 mph 85% 0 in
03:04 63.5 °F 58.6 °F 30.1 in SO 2 mph 7.4 mph 84.3% 0 in
03:09 63.3 °F 58.1 °F 30.1 in SO 2 mph 6.9 mph 83% 0 in
03:14 63.3 °F 57.9 °F 30.1 in SO 3.4 mph 4.7 mph 82.3% 0 in
03:19 63.5 °F 57.9 °F 30.1 in SSO 3.6 mph 4.6 mph 82% 0 in
03:24 63.5 °F 57.7 °F 30.1 in SO 3 mph 4.6 mph 81.3% 0 in
03:29 63.7 °F 57.7 °F 30.1 in OSO 2.9 mph 2.9 mph 81% 0 in
03:34 63.7 °F 57.7 °F 30.1 in OSO 1.9 mph 2.9 mph 81% 0 in
03:39 63.7 °F 57.7 °F 30.1 in OSO 1.8 mph 2.3 mph 81% 0 in
03:44 63.7 °F 57.7 °F 30.1 in OSO 0.2 mph 2.4 mph 81% 0 in
03:49 63.7 °F 57.7 °F 30.1 in Calm   4.6 mph 81% 0 in
03:54 63.7 °F 57.7 °F 30.1 in SSE 1.8 mph 5.2 mph 81% 0 in
03:59 63.7 °F 57.7 °F 30.1 in SSE 2 mph 5.2 mph 81% 0 in
04:04 63.7 °F 57.7 °F 30.1 in SSO 3 mph 5.2 mph 81% 0 in
04:09 63.5 °F 57.6 °F 30.1 in SSO 3.1 mph 5.9 mph 81% 0 in
04:14 63.3 °F 57.6 °F 30.1 in SSO 3.5 mph 4.6 mph 81% 0 in
04:19 63.3 °F 57.4 °F 30.1 in SSO 3.6 mph 6.2 mph 81% 0 in
04:24 63.3 °F 57.4 °F 30.1 in SO 3.2 mph 6.2 mph 81% 0 in
04:29 63.3 °F 57.4 °F 30.1 in SO 3.1 mph 5.9 mph 81% 0 in
04:34 63.3 °F 57.4 °F 30.1 in SO 3.5 mph 5.9 mph 81% 0 in
04:39 63.3 °F 57.4 °F 30.1 in SO 3.6 mph 5.2 mph 81% 0 in
04:44 63.3 °F 57.4 °F 30.1 in SO 3.2 mph 5.9 mph 81% 0 in
04:49 63.1 °F 57.2 °F 30.1 in OSO 3.1 mph 5.2 mph 81% 0 in
04:54 63.1 °F 57.2 °F 30.1 in OSO 3.1 mph 5.8 mph 81% 0 in
04:59 63 °F 57 °F 30.1 in SO 3.1 mph 5.8 mph 81% 0 in
05:04 63 °F 57 °F 30.1 in SO 3.1 mph 4.6 mph 81% 0 in
05:09 62.8 °F 56.8 °F 30.1 in SSO 3.1 mph 6.2 mph 81% 0 in
05:14 62.8 °F 56.8 °F 30.1 in SO 3.1 mph 5.9 mph 81% 0 in
05:19 62.6 °F 56.8 °F 30.1 in SSO 3.1 mph 6.2 mph 81% 0 in
05:24 62.6 °F 56.7 °F 30.1 in SO 2.9 mph 4.6 mph 81% 0 in
05:29 62.4 °F 56.7 °F 30.1 in SO 2.9 mph 4.6 mph 81% 0 in
05:34 62.4 °F 56.5 °F 30.1 in SO 2.5 mph 3.6 mph 81% 0 in
05:39 62.4 °F 56.5 °F 30.1 in SSO 2.4 mph 5.8 mph 81% 0 in
05:44 62.2 °F 56.3 °F 30.1 in SSO 2.9 mph 4.7 mph 81% 0 in
05:49 62.2 °F 56.5 °F 30.1 in OSO 2.9 mph 4.3 mph 81.4% 0 in
05:54 62.1 °F 56.5 °F 30.1 in SSO 2.5 mph 5.8 mph 82% 0 in
05:59 62.1 °F 56.5 °F 30.1 in SSO 2.4 mph 6.4 mph 82% 0 in
06:04 61.9 °F 56.3 °F 30.1 in SSO 3.5 mph 6.9 mph 82% 0 in
06:09 61.7 °F 56.1 °F 30.1 in Sur 3.6 mph 5.2 mph 82% 0 in
06:14 61.5 °F 55.9 °F 30.1 in SSE 3.2 mph 5.2 mph 82% 0 in
06:19 61.3 °F 55.8 °F 30.1 in Sur 3.1 mph 4.7 mph 82% 0 in
06:24 61.3 °F 55.8 °F 30.1 in Sur 3.5 mph 4.7 mph 82% 0 in
06:29 61.2 °F 55.9 °F 30.1 in SSO 3.6 mph 6.2 mph 82.6% 0 in
06:34 61.2 °F 55.9 °F 30.1 in SSO 3.6 mph 5.9 mph 83% 0 in
06:39 61.2 °F 55.9 °F 30.1 in SO 3.6 mph 5.9 mph 83% 0 in
06:44 61.2 °F 55.8 °F 30.1 in SO 4 mph 5.9 mph 82.4% 0 in
06:49 61.2 °F 55.6 °F 30.1 in SO 4 mph 5.8 mph 82% 0 in
06:54 61.2 °F 55.6 °F 30.1 in SO 3.6 mph 4.6 mph 82% 0 in
06:59 61.2 °F 55.6 °F 30.1 in SO 3.6 mph 5.2 mph 82% 0 in
07:04 61.2 °F 55.6 °F 30.1 in SO 2.9 mph 5.8 mph 82% 0 in
07:09 61.2 °F 55.8 °F 30.1 in SO 2.9 mph 5.9 mph 82% 0 in
07:14 61.2 °F 55.6 °F 30.1 in SSO 3.5 mph 5.9 mph 82% 0 in
07:19 61.2 °F 55.6 °F 30.1 in SSO 3.6 mph 6.9 mph 82% 0 in
07:24 61.2 °F 55.6 °F 30.1 in SO 4 mph 5.8 mph 82% 0 in
07:29 61.2 °F 55.6 °F 30.1 in SO 4 mph 7.4 mph 82% 0 in
07:34 61.3 °F 55.6 °F 30.1 in SSO 3.7 mph 6.9 mph 81.4% 0 in
07:39 61.3 °F 55.6 °F 30.1 in SSO 3.6 mph 6.2 mph 81% 0 in
07:44 61.5 °F 55.6 °F 30.1 in SSO 4 mph 6.2 mph 81% 0 in
07:49 61.5 °F 55.6 °F 30.1 in SO 4 mph 5.8 mph 81% 0 in
07:54 61.9 °F 55.9 °F 30.1 in SSO 3.7 mph 6.9 mph 81% 0 in
07:59 61.9 °F 55.9 °F 30.1 in SSO 3.6 mph 8.1 mph 80.7% 0 in
08:04 61.9 °F 55.6 °F 30.1 in SSO 4.7 mph 7.4 mph 80% 0 in
08:09 61.7 °F 55.6 °F 30.1 in SO 4.7 mph 6.9 mph 80% 0 in
08:14 61.9 °F 55.6 °F 30.1 in SO 4.7 mph 6.9 mph 80% 0 in
08:19 62.1 °F 55.8 °F 30.1 in SO 4.7 mph 5.2 mph 80% 0 in
08:24 62.2 °F 55.9 °F 30.1 in SO 3.3 mph 5.4 mph 80% 0 in
08:29 62.4 °F 55.8 °F 30.1 in SO 3.1 mph 5.9 mph 79.1% 0 in
08:34 62.8 °F 55.9 °F 30.1 in SO 3.5 mph 6.2 mph 78.8% 0 in
08:39 63 °F 55.9 °F 30.1 in SO 3.6 mph 6.9 mph 78% 0 in
08:44 63.1 °F 55.9 °F 30.1 in OSO 3.6 mph 7.4 mph 77.4% 0 in
08:49 63.3 °F 55.9 °F 30.1 in SSO 3.6 mph 7.4 mph 76.7% 0 in
08:54 63.7 °F 55.8 °F 30.1 in SSO 4 mph 8.1 mph 75.5% 0 in
08:59 63.7 °F 55.6 °F 30.1 in SO 4 mph 6.9 mph 75% 0 in
09:04 63.9 °F 55.8 °F 30.1 in SSO 4.7 mph 6.9 mph 75% 0 in
09:09 64 °F 55.9 °F 30.1 in SSO 4.7 mph 6.2 mph 74.9% 0 in
09:14 64.2 °F 55.8 °F 30.1 in SO 4.1 mph 6.9 mph 74% 0 in
09:19 64.6 °F 56.1 °F 30.1 in Oeste 4 mph 6.2 mph 74% 0 in
09:24 64.8 °F 55.9 °F 30.1 in OSO 3.7 mph 6.2 mph 73.1% 0 in
09:29 65.1 °F 56.1 °F 30.1 in SO 3.6 mph 6.9 mph 72.8% 0 in
09:34 65.5 °F 56.3 °F 30.1 in SO 4 mph 7.6 mph 72% 0 in
09:39 65.8 °F 56.1 °F 30.1 in SO 4 mph 8.5 mph 71.1% 0 in
09:44 66 °F 56.1 °F 30.1 in SSO 4.6 mph 9.7 mph 70.4% 0 in
09:49 66.4 °F 56.3 °F 30.1 in SO 4.7 mph 6.9 mph 70% 0 in
09:54 66.7 °F 56.3 °F 30.1 in OSO 4 mph 5.9 mph 69% 0 in
09:59 67.1 °F 56.1 °F 30.1 in OSO 4 mph 8.1 mph 68% 0 in
10:04 67.5 °F 56.3 °F 30.1 in SO 3.6 mph 6.9 mph 67.6% 0 in
10:09 67.5 °F 56.1 °F 30.1 in SO 3.6 mph 6.9 mph 67% 0 in
10:14 67.6 °F 56.1 °F 30.1 in OSO 4.2 mph 6.9 mph 66.2% 0 in
10:19 68.2 °F 56.3 °F 30.1 in OSO 4.3 mph 6.9 mph 66% 0 in
10:24 68.4 °F 56.7 °F 30.1 in SO 3.7 mph 5.8 mph 65.9% 0 in
10:29 69.1 °F 56.8 °F 30.1 in SE 3.6 mph 5.9 mph 65.1% 0 in
10:34 69.6 °F 56.7 °F 30.1 in SSE 3 mph 5.8 mph 63.7% 0 in
10:39 70.2 °F 56.7 °F 30.1 in ENE 2.9 mph 5.2 mph 62.7% 0 in
10:44 70.5 °F 56.8 °F 30.1 in OSO 2.9 mph 5.8 mph 61.9% 0 in
10:49 71.1 °F 56.8 °F 30.1 in ONO 2.9 mph 4.7 mph 61% 0 in
10:54 71.4 °F 57 °F 30.1 in SO 2.1 mph 4 mph 60.3% 0 in
10:59 72 °F 56.8 °F 30.1 in SSO 2 mph 4.6 mph 59% 0 in
11:04 72.7 °F 56.8 °F 30.1 in Sur 1.8 mph 4.3 mph 57.9% 0 in
11:09 73 °F 56.5 °F 30.1 in OSO 1.8 mph 4.6 mph 56.4% 0 in
11:14 73.2 °F 56.5 °F 30.1 in Sur 2.4 mph 4.7 mph 55.7% 0 in
11:19 73.6 °F 56.5 °F 30.1 in ONO 2.4 mph 4.7 mph 55.2% 0 in
11:24 73.8 °F 56.7 °F 30.1 in OSO 2.9 mph 5.2 mph 55.1% 0 in
11:29 73.9 °F 56.7 °F 30.1 in ONO 2.9 mph 6.2 mph 54.7% 0 in
11:34 74.5 °F 56.5 °F 30.1 in North 2.9 mph 5.2 mph 53.7% 0 in
11:39 74.8 °F 55.9 °F 30.1 in ONO 2.9 mph 4.6 mph 52.1% 0 in
11:44 75.2 °F 55.8 °F 30.1 in North 2.5 mph 5.2 mph 50.9% 0 in
11:49 75.7 °F 55.8 °F 30.1 in ONO 2.4 mph 5.9 mph 50% 0 in
11:54 75.9 °F 55.9 °F 30.1 in North 2.4 mph 6.4 mph 50% 0 in
11:59 76.3 °F 56.3 °F 30.1 in NNE 2.4 mph 7.4 mph 49.9% 0 in
12:04 76.5 °F 55.9 °F 30.1 in NO 3 mph 5.4 mph 49.1% 0 in
12:09 76.6 °F 56.3 °F 30.1 in ENE 3.1 mph 8.5 mph 49.3% 0 in
12:14 76.6 °F 56.7 °F 30.1 in NNE 3.9 mph 8.1 mph 50.2% 0 in
12:19 76.6 °F 56.7 °F 30.1 in NNE 4 mph 8.1 mph 50% 0 in
12:24 76.8 °F 57.2 °F 30.1 in NE 4.3 mph 9.2 mph 50.6% 0 in
12:29 77 °F 57.4 °F 30.1 in NNE 4.3 mph 9.7 mph 50.6% 0 in
12:34 77.5 °F 57.7 °F 30.1 in NNE 4.7 mph 9.2 mph 50.7% 0 in
12:39 77.9 °F 57.7 °F 30.1 in NE 4.7 mph 10.4 mph 50% 0 in
12:44 78.3 °F 57.7 °F 30.1 in NE 4.3 mph 6.2 mph 49.3% 0 in
12:49 78.4 °F 57.6 °F 30.1 in ENE 4.3 mph 6.4 mph 49% 0 in
12:54 78.6 °F 57.4 °F 30.1 in SE 3.4 mph 6.9 mph 48.2% 0 in
12:59 78.8 °F 57.9 °F 30.1 in NNE 3.1 mph 7.6 mph 48.7% 0 in
13:04 79.5 °F 58.5 °F 30.1 in NE 3.1 mph 8.1 mph 48.5% 0 in
13:09 80.2 °F 58.3 °F 30.1 in NNE 3.1 mph 8.1 mph 47.1% 0 in
13:14 80.4 °F 57.7 °F 30.1 in NNE 3.5 mph 8.5 mph 46% 0 in
13:19 80.4 °F 57.7 °F 30.1 in NNE 3.6 mph 8.1 mph 46% 0 in
13:24 80.8 °F 57.9 °F 30.1 in NE 4 mph 9.2 mph 45.7% 0 in
13:29 80.8 °F 57.7 °F 30.1 in NE 4 mph 11.5 mph 45.3% 0 in
13:34 80.8 °F 57.6 °F 30.1 in NE 4.9 mph 6.9 mph 45% 0 in
13:39 81.1 °F 57.6 °F 30.1 in ENE 5.2 mph 10.7 mph 44.7% 0 in
13:44 81.5 °F 57.9 °F 30.1 in NE 4.8 mph 9.2 mph 44.8% 0 in
13:49 81.9 °F 57.6 °F 30.1 in ENE 4.7 mph 9.7 mph 43.6% 0 in
13:54 82 °F 57.6 °F 30.1 in ENE 4.1 mph 12.7 mph 43.2% 0 in
13:59 82 °F 57.2 °F 30.1 in ENE 4 mph 12.7 mph 42.8% 0 in
14:04 82.2 °F 57.6 °F 30.1 in ENE 4.7 mph 9.2 mph 43% 0 in
14:09 82.4 °F 57.7 °F 30.1 in NE 4.7 mph 10.4 mph 43% 0 in
14:14 82.2 °F 57.6 °F 30.1 in NNE 5.3 mph 12.7 mph 43.1% 0 in
14:19 82 °F 57.7 °F 30.1 in NE 5.4 mph 8.1 mph 43.7% 0 in
14:24 82.2 °F 58.6 °F 30.1 in ENE 5.4 mph 11.5 mph 44.6% 0 in
14:29 82.2 °F 58.6 °F 30.1 in ENE 5.4 mph 10.4 mph 44.7% 0 in
14:34 82.4 °F 59.5 °F 30.1 in NE 5.4 mph 11.8 mph 45.9% 0 in
14:39 82.4 °F 60.1 °F 30.1 in NE 5.4 mph 13.7 mph 46.7% 0 in
14:44 82.2 °F 60.4 °F 30.1 in NE 6.8 mph 15.2 mph 47.6% 0 in
14:49 82 °F 60.8 °F 30.1 in NNE 6.9 mph 14.7 mph 48.4% 0 in
14:54 82 °F 61 °F 30.1 in NE 7.5 mph 16.8 mph 48.7% 0 in
14:59 82 °F 61.3 °F 30.1 in NNE 7.6 mph 17.3 mph 49.4% 0 in
15:04 82 °F 60.8 °F 30.1 in NE 8.4 mph 13.8 mph 48.5% 0 in
15:09 82.9 °F 60.3 °F 30.1 in ESE 8.5 mph 12.3 mph 46.4% 0 in
15:14 82.9 °F 59.5 °F 30.1 in ESE 6.6 mph 12.7 mph 45% 0 in
15:19 82.9 °F 59.5 °F 30.1 in Este 6.4 mph 11.5 mph 45.3% 0 in
15:24 82.9 °F 59.4 °F 30.1 in ESE 5.5 mph 9.7 mph 45% 0 in
15:29 82.8 °F 59.7 °F 30.1 in Este 5.4 mph 11.5 mph 45.6% 0 in
15:34 82.6 °F 59.7 °F 30.1 in ESE 6.8 mph 13.8 mph 46.2% 0 in
15:39 82.6 °F 60.1 °F 30.1 in Este 6.9 mph 11.5 mph 46.7% 0 in
15:44 82.8 °F 60.3 °F 30.1 in NE 6.8 mph 8.1 mph 46.5% 0 in
15:49 82.8 °F 60.4 °F 30.1 in ESE 6.2 mph 16.1 mph 47% 0 in
15:54 82.4 °F 60.4 °F 30.1 in Este 6.3 mph 11.8 mph 47.5% 0 in
15:59 82.4 °F 60.8 °F 30.1 in ESE 6.4 mph 13.8 mph 48% 0 in
16:04 82.2 °F 60.6 °F 30.1 in SE 7.8 mph 11.8 mph 48% 0 in
16:09 82 °F 60.4 °F 30.1 in ESE 8.1 mph 13.8 mph 48.2% 0 in
16:14 81.9 °F 60.4 °F 30.1 in ESE 8.1 mph 14.7 mph 48.3% 0 in
16:19 81.7 °F 60.6 °F 30.1 in ESE 8.1 mph 15 mph 48.8% 0 in
16:24 81.9 °F 60.8 °F 30.1 in SE 8.1 mph 11.5 mph 49% 0 in
16:29 81.9 °F 60.4 °F 30.1 in ESE 8.1 mph 10.4 mph 48.1% 0 in
16:34 81.9 °F 60.1 °F 30.1 in ESE 8 mph 14.5 mph 47.9% 0 in
16:39 81.5 °F 59.9 °F 30.1 in ESE 7.6 mph 15 mph 48% 0 in
16:44 81.9 °F 60.1 °F 30.1 in ESE 7.6 mph 12.7 mph 47.7% 0 in
16:49 81.9 °F 59.9 °F 30.1 in ESE 7.6 mph 13.8 mph 47.5% 0 in
16:54 81.7 °F 59.4 °F 30.1 in SE 7 mph 11.4 mph 47% 0 in
16:59 81.9 °F 59 °F 30.1 in Este 6.9 mph 11.8 mph 46% 0 in
17:04 81.9 °F 58.8 °F 30.1 in Este 6.3 mph 11.5 mph 45.5% 0 in
17:09 82 °F 58.6 °F 30.1 in Este 6.2 mph 12.5 mph 45% 0 in
17:14 81.9 °F 57.7 °F 30.1 in ESE 5.9 mph 12.7 mph 44% 0 in
17:19 81.9 °F 57.6 °F 30.1 in ESE 5.9 mph 12.7 mph 43.5% 0 in
17:24 81.7 °F 57 °F 30.1 in Este 6.3 mph 12.7 mph 43.1% 0 in
17:29 81.3 °F 56.8 °F 30.1 in Este 6.4 mph 11.5 mph 43.2% 0 in
17:34 81.7 °F 57 °F 30.1 in Este 6.4 mph 9.7 mph 43% 0 in
17:39 81.9 °F 57.9 °F 30.1 in NE 6.4 mph 11.2 mph 44.1% 0 in
17:44 81.9 °F 58.1 °F 30.1 in NE 6.3 mph 11.8 mph 44.6% 0 in
17:49 81.1 °F 58.3 °F 30.1 in ENE 5.9 mph 15 mph 45.9% 0 in
17:54 80.4 °F 58.3 °F 30.1 in ENE 7.9 mph 15 mph 47% 0 in
17:59 80.1 °F 58.1 °F 30.1 in NE 8.1 mph 15.2 mph 47.3% 0 in
18:04 80.1 °F 58.3 °F 30.1 in NE 8.4 mph 15 mph 47.4% 0 in
18:09 79.9 °F 58.1 °F 30.1 in NE 8.5 mph 17.3 mph 47.7% 0 in
18:14 79.5 °F 58.1 °F 30.1 in NE 8.5 mph 19 mph 48% 0 in
18:19 79.2 °F 58.3 °F 30.1 in NNE 8.5 mph 17.3 mph 48.9% 0 in
18:24 78.8 °F 58.1 °F 30.1 in NE 9.7 mph 19 mph 49% 0 in
18:29 78.4 °F 58.1 °F 30.1 in NE 10.2 mph 17.3 mph 49.4% 0 in
18:34 78.4 °F 58.3 °F 30.1 in NE 10.2 mph 15 mph 50% 0 in
18:39 78.3 °F 58.1 °F 30.1 in NNE 10.2 mph 18.5 mph 50% 0 in
18:44 77.7 °F 57.9 °F 30.1 in NE 10.2 mph 17.5 mph 50.7% 0 in
18:49 77.5 °F 58.1 °F 30.1 in NNE 10.2 mph 17.3 mph 51.1% 0 in
18:54 77.5 °F 58.5 °F 30.1 in NE 10.6 mph 16.3 mph 51.8% 0 in
18:59 77.5 °F 58.5 °F 30.1 in NE 10.7 mph 15.9 mph 52% 0 in
19:04 77.2 °F 58.6 °F 30.1 in NE 9.7 mph 17.3 mph 52.7% 0 in
19:09 76.6 °F 58.8 °F 30.1 in NE 9.7 mph 16.1 mph 54% 0 in
19:14 76.6 °F 59.2 °F 30.1 in NE 10.1 mph 16.1 mph 54.9% 0 in
19:19 76.5 °F 59.2 °F 30.1 in NE 10.2 mph 16.1 mph 55% 0 in
19:24 76.3 °F 59.4 °F 30.1 in NE 9.3 mph 15.2 mph 55.8% 0 in
19:29 75.9 °F 59.7 °F 30.1 in NE 9.2 mph 15 mph 56.9% 0 in
19:34 75.7 °F 59.5 °F 30.1 in NNE 8.6 mph 17.3 mph 57% 0 in
19:39 75.6 °F 59.5 °F 30.1 in NNE 8.5 mph 13 mph 57.6% 0 in
19:44 75.4 °F 59.7 °F 30.1 in NE 8.7 mph 14 mph 58.3% 0 in
19:49 75 °F 59.7 °F 30.1 in NE 8.7 mph 14 mph 59.2% 0 in
19:54 74.8 °F 60.1 °F 30.1 in NE 8.5 mph 15.9 mph 60% 0 in
19:59 74.5 °F 59.9 °F 30.1 in NE 8.5 mph 16.1 mph 60.7% 0 in
20:04 73.9 °F 60.3 °F 30.1 in NE 8.5 mph 13 mph 62% 0 in
20:09 73.8 °F 60.1 °F 30.1 in NE 8.5 mph 17.3 mph 62.6% 0 in
20:14 73.2 °F 59.9 °F 30.1 in NE 8.9 mph 14 mph 63% 0 in
20:19 73 °F 60.1 °F 30.1 in NE 9.2 mph 12.7 mph 63.9% 0 in
20:24 72.9 °F 59.9 °F 30.1 in NE 7.8 mph 12.3 mph 63.9% 0 in
20:29 72.7 °F 59.4 °F 30.1 in NE 7.6 mph 16.3 mph 63% 0 in
20:34 72.1 °F 58.8 °F 30.1 in NE 8.4 mph 13.8 mph 63% 0 in
20:39 72 °F 58.8 °F 30.1 in NE 8.5 mph 13.8 mph 63% 0 in
20:44 72 °F 58.3 °F 30.1 in NE 7.6 mph 10.4 mph 62.4% 0 in
20:49 71.6 °F 57.9 °F 30.1 in NE 7.6 mph 12.7 mph 62% 0 in
20:54 71.2 °F 57.7 °F 30.1 in NNE 7.5 mph 11.5 mph 62.2% 0 in
20:59 71.1 °F 57.4 °F 30.1 in NNE 7.4 mph 12.7 mph 62% 0 in
21:04 71.1 °F 57.7 °F 30.1 in NE 7 mph 11.5 mph 63% 0 in
21:09 70.7 °F 57.4 °F 30.1 in NE 6.9 mph 12.7 mph 62.6% 0 in
21:14 70.5 °F 56.5 °F 30.1 in NE 7.3 mph 11.8 mph 61.2% 0 in
21:19 70.5 °F 55.9 °F 30.1 in NE 7.4 mph 11.5 mph 60.1% 0 in
21:24 70.3 °F 56.3 °F 30.1 in NNE 6.6 mph 8.1 mph 60.9% 0 in
21:29 70.3 °F 56.8 °F 30.1 in NNE 6.4 mph 9.2 mph 62.6% 0 in
21:34 70 °F 57 °F 30.1 in NE 4.9 mph 10.4 mph 63.5% 0 in
21:39 69.6 °F 56.8 °F 30.1 in NNE 4.7 mph 8.5 mph 63.5% 0 in
21:44 69.6 °F 56.5 °F 30.1 in NE 5.8 mph 10.7 mph 63% 0 in
21:49 69.4 °F 56.3 °F 30.1 in NE 5.9 mph 9.7 mph 63% 0 in
21:54 69.3 °F 56.3 °F 30.1 in NNE 5.5 mph 9.7 mph 63.3% 0 in
21:59 69.3 °F 56.8 °F 30.1 in NNE 5.4 mph 8.5 mph 65.1% 0 in
22:04 68.9 °F 57 °F 30.1 in NNE 5.9 mph 9.7 mph 66.2% 0 in
22:09 68.5 °F 56.8 °F 30.1 in NE 5.9 mph 9.2 mph 66.1% 0 in
22:14 68.5 °F 57 °F 30.1 in NE 5.9 mph 8.5 mph 66.8% 0 in
22:19 68.5 °F 57 °F 30.1 in NE 5.9 mph 9.2 mph 67% 0 in
22:24 68.5 °F 57.2 °F 30.1 in NE 5.5 mph 9.7 mph 67.3% 0 in
22:29 68.4 °F 57.6 °F 30.1 in NNE 5.4 mph 9.2 mph 68.5% 0 in
22:34 68.2 °F 57.9 °F 30.1 in NE 5.8 mph 9.7 mph 69.9% 0 in
22:39 67.8 °F 57.7 °F 30.1 in NE 5.9 mph 9.2 mph 70% 0 in
22:44 67.8 °F 57.9 °F 30.1 in NNE 6.2 mph 6.9 mph 70.4% 0 in
22:49 67.8 °F 58.1 °F 30.1 in NNE 6.2 mph 7.4 mph 71% 0 in
22:54 67.6 °F 58.1 °F 30.1 in NNE 4.3 mph 6.9 mph 71.5% 0 in
22:59 67.6 °F 58.5 °F 30.1 in NNE 4 mph 6.9 mph 72.5% 0 in
23:04 67.5 °F 58.5 °F 30.1 in NNE 4.3 mph 6.9 mph 73% 0 in
23:09 67.3 °F 58.3 °F 30.1 in NNE 4.3 mph 6.9 mph 73% 0 in
23:14 66.9 °F 58.1 °F 30.1 in NNE 4.3 mph 6.9 mph 73% 0 in
23:19 66.9 °F 58.3 °F 30.1 in NE 4.3 mph 5.9 mph 73.5% 0 in
Murcia-Puente Tocinos, Espa?a
Compliments of Weather Underground - 3 mb

La estación de MeteoMurcia.com, publica sus datos en los siguientes proyectos:

Weather Underground PWS IMURCIAP2 Meteoclimatic www.awekas.at

W3Counter
Web Analytics